Time;durP1;ratioP1;P1;durP2;ratioP2;P2;SDS_P1;SDS_P2;PMS_P1;PMS_P2;Temp;Humidity;BMP_temperature;BMP_pressure;BME280_temperature;BME280_humidity;BME280_pressure;Samples;Min_cycle;Max_cycle;Signal;HPM_P1;HPM_P2
2023/02/16 00:01:42;;;;;;;18.77;14.93;;;4.50;99.90;;;;;;5015781;28;20482;-69
2023/02/16 00:04:18;;;;;;;19.50;15.47;;;4.60;99.90;;;;;;5016831;28;20573;-69
2023/02/16 00:06:44;;;;;;;19.60;15.63;;;4.60;99.90;;;;;;5015604;28;20481;-71
2023/02/16 00:09:10;;;;;;;20.50;16.30;;;4.70;99.90;;;;;;5015957;28;20493;-70
2023/02/16 00:14:22;;;;;;;18.53;15.47;;;4.60;99.90;;;;;;5015121;28;20182;-70
2023/02/16 00:16:49;;;;;;;19.73;13.87;;;4.40;99.90;;;;;;5015349;28;20407;-70
2023/02/16 00:19:22;;;;;;;22.63;15.60;;;4.20;99.90;;;;;;5015025;28;20450;-69
2023/02/16 00:21:49;;;;;;;18.27;16.10;;;4.00;99.90;;;;;;5015353;28;20415;-70
2023/02/16 00:24:15;;;;;;;20.17;14.70;;;3.80;99.90;;;;;;5013863;28;20946;-70
2023/02/16 00:26:41;;;;;;;18.43;14.80;;;3.70;99.90;;;;;;5015648;28;20399;-69
2023/02/16 00:29:14;;;;;;;16.20;14.37;;;3.80;99.90;;;;;;5014443;28;20418;-70
2023/02/16 00:31:39;;;;;;;15.70;13.93;;;4.00;99.90;;;;;;5014557;28;20430;-70
2023/02/16 00:34:27;;;;;;;16.50;13.47;;;4.00;99.90;;;;;;5014871;28;20813;-71
2023/02/16 00:36:53;;;;;;;14.73;12.90;;;4.10;99.90;;;;;;5014658;28;20164;-70
2023/02/16 00:39:19;;;;;;;18.90;12.67;;;4.20;99.90;;;;;;5014271;28;21060;-70
2023/02/16 00:41:50;;;;;;;18.70;13.47;;;4.20;99.90;;;;;;5023466;23;20588;-69
2023/02/16 00:44:31;;;;;;;20.80;14.00;;;4.20;99.90;;;;;;5013783;28;20294;-69
2023/02/16 00:46:57;;;;;;;15.73;14.00;;;4.10;99.90;;;;;;5002994;28;20921;-70
2023/02/16 00:49:23;;;;;;;14.97;13.37;;;4.00;99.90;;;;;;4994069;28;20392;-70
2023/02/16 00:51:49;;;;;;;16.50;13.20;;;4.10;99.90;;;;;;4994138;28;20434;-70
2023/02/16 00:54:14;;;;;;;16.83;13.20;;;4.10;99.90;;;;;;4994293;28;20267;-70
2023/02/16 00:56:41;;;;;;;17.90;13.70;;;4.00;99.90;;;;;;4993931;28;20211;-70
2023/02/16 00:59:18;;;;;;;14.17;12.60;;;4.10;99.90;;;;;;4994040;28;20192;-70
2023/02/16 01:01:44;;;;;;;15.53;11.63;;;4.20;99.90;;;;;;4994064;28;20508;-70
2023/02/16 01:04:19;;;;;;;16.40;13.17;;;4.20;99.90;;;;;;4994135;28;20977;-70
2023/02/16 01:12:16;;;;;;;14.47;12.33;;;4.20;99.90;;;;;;5007401;28;20425;-70
2023/02/16 01:14:43;;;;;;;13.93;12.50;;;4.30;99.90;;;;;;5013626;28;20403;-70
2023/02/16 01:17:10;;;;;;;19.33;13.70;;;4.30;99.90;;;;;;5013355;28;20403;-70
2023/02/16 01:19:35;;;;;;;14.43;12.93;;;4.30;99.90;;;;;;5013420;28;20442;-69
2023/02/16 01:22:01;;;;;;;15.57;13.13;;;4.20;99.90;;;;;;5013496;28;20545;-70
2023/02/16 01:24:26;;;;;;;19.00;13.83;;;4.20;99.90;;;;;;5013870;28;20702;-70
2023/02/16 01:26:52;;;;;;;13.80;12.30;;;4.20;99.90;;;;;;5013097;28;20168;-70
2023/02/16 01:29:20;;;;;;;17.60;13.83;;;4.00;99.90;;;;;;5011985;28;20178;-69
2023/02/16 01:31:46;;;;;;;14.13;12.33;;;3.80;99.90;;;;;;5013328;28;20560;-70
2023/02/16 01:34:12;;;;;;;15.03;13.00;;;3.80;99.90;;;;;;5003389;28;20408;-70
2023/02/16 01:36:42;;;;;;;17.30;12.60;;;3.80;99.90;;;;;;4993974;28;20410;-70
2023/02/16 01:39:11;;;;;;;19.50;14.50;;;3.70;99.90;;;;;;4993992;28;20453;-70
2023/02/16 01:41:55;;;;;;;18.20;14.40;;;3.60;99.90;;;;;;5002291;28;20446;-70
2023/02/16 01:44:44;;;;;;;16.93;14.17;;;3.70;99.90;;;;;;5013656;28;20380;-69
2023/02/16 01:47:28;;;;;;;15.13;13.17;;;3.50;99.90;;;;;;4995419;28;20414;-70
2023/02/16 01:49:54;;;;;;;16.13;12.67;;;3.60;99.90;;;;;;5013296;28;20490;-70
2023/02/16 01:52:34;;;;;;;16.70;12.80;;;3.60;99.90;;;;;;5013443;28;20840;-69
2023/02/16 01:55:21;;;;;;;17.03;12.60;;;3.70;99.90;;;;;;5013404;28;20156;-70
2023/02/16 01:57:53;;;;;;;16.17;12.93;;;3.70;99.90;;;;;;5012839;28;20395;-70
2023/02/16 02:00:48;;;;;;;17.43;14.33;;;3.70;99.90;;;;;;5013198;28;20465;-69
2023/02/16 02:06:06;;;;;;;15.50;13.43;;;3.50;99.90;;;;;;5013727;28;20382;-70
2023/02/16 02:08:37;;;;;;;14.30;12.90;;;3.40;99.90;;;;;;5013152;28;20479;-70
2023/02/16 02:11:17;;;;;;;15.73;13.37;;;3.50;99.90;;;;;;5012493;28;20434;-69
2023/02/16 02:13:53;;;;;;;16.60;13.07;;;3.60;99.90;;;;;;5012678;28;20757;-70
2023/02/16 02:16:21;;;;;;;18.00;14.30;;;3.60;99.90;;;;;;5013249;28;20387;-70
2023/02/16 02:18:47;;;;;;;17.37;12.27;;;3.50;99.90;;;;;;5013117;28;20413;-71
2023/02/16 02:24:59;;;;;;;18.33;13.57;;;3.70;99.90;;;;;;4959822;28;20405;-70
2023/02/16 02:27:37;;;;;;;17.07;12.87;;;3.80;99.90;;;;;;5012564;28;20469;-70
2023/02/16 02:30:40;;;;;;;14.50;12.37;;;3.80;99.90;;;;;;5012783;28;20395;-70
2023/02/16 02:33:20;;;;;;;15.60;13.20;;;3.70;99.90;;;;;;5013276;28;20393;-69
2023/02/16 02:36:06;;;;;;;15.57;13.67;;;3.50;99.90;;;;;;5012727;28;20936;-69
2023/02/16 02:38:52;;;;;;;15.30;12.50;;;3.30;99.90;;;;;;5012823;28;20387;-69
2023/02/16 02:44:28;;;;;;;13.70;10.43;;;3.20;99.90;;;;;;5009644;28;21040;-69
2023/02/16 02:46:54;;;;;;;14.37;11.83;;;3.30;99.90;;;;;;5012502;28;20411;-69
2023/02/16 02:49:20;;;;;;;12.00;10.03;;;3.20;99.90;;;;;;4994713;28;20411;-69
2023/02/16 02:51:47;;;;;;;16.63;11.40;;;3.20;99.90;;;;;;4993116;28;20780;-69
2023/02/16 03:03:43;;;;;;;15.27;11.90;;;3.40;99.90;;;;;;4994180;28;20738;-70
2023/02/16 03:06:19;;;;;;;12.83;10.87;;;3.40;99.90;;;;;;4971557;28;20425;-69
2023/02/16 03:08:49;;;;;;;12.07;10.83;;;3.40;99.90;;;;;;4990267;28;20801;-70
2023/02/16 03:14:17;;;;;;;15.93;11.63;;;3.40;99.90;;;;;;5012406;28;20399;-70
2023/02/16 03:16:47;;;;;;;12.23;10.30;;;3.40;99.90;;;;;;5012737;28;20415;-69
2023/02/16 03:30:20;;;;;;;12.63;10.40;;;3.30;99.90;;;;;;5016414;28;20433;-69
2023/02/16 03:32:47;;;;;;;10.83;9.67;;;3.30;99.90;;;;;;5015945;28;20465;-69
2023/02/16 03:35:12;;;;;;;12.00;8.63;;;3.30;99.90;;;;;;5015588;28;20437;-70
2023/02/16 03:37:40;;;;;;;10.50;9.40;;;3.50;99.90;;;;;;5015599;28;20415;-69
2023/02/16 03:40:27;;;;;;;15.00;9.40;;;3.50;99.90;;;;;;5015259;28;20462;-69
2023/02/16 03:42:56;;;;;;;12.77;11.07;;;3.50;99.90;;;;;;5014695;28;20789;-70
2023/02/16 03:45:23;;;;;;;11.97;10.40;;;3.20;99.90;;;;;;5015313;28;20410;-69
2023/02/16 03:47:49;;;;;;;12.87;11.33;;;3.10;99.90;;;;;;5015390;28;20824;-69
2023/02/16 03:50:15;;;;;;;11.47;10.27;;;3.20;99.90;;;;;;5015530;28;20404;-69
2023/02/16 03:52:40;;;;;;;12.37;9.90;;;3.30;99.90;;;;;;5015426;28;20535;-69
2023/02/16 03:55:06;;;;;;;12.30;11.00;;;3.40;99.90;;;;;;5015256;28;20180;-69
2023/02/16 03:57:32;;;;;;;14.90;12.17;;;3.50;99.90;;;;;;5014821;28;20289;-70
2023/02/16 03:59:57;;;;;;;12.70;10.63;;;3.50;99.90;;;;;;5015217;28;20188;-70
2023/02/16 04:02:24;;;;;;;15.57;11.67;;;3.50;99.90;;;;;;5015077;28;20184;-70
2023/02/16 04:04:49;;;;;;;12.60;10.90;;;3.40;99.90;;;;;;5015539;28;20218;-70
2023/02/16 04:07:15;;;;;;;12.20;10.00;;;3.50;99.90;;;;;;5015138;28;20949;-70
2023/02/16 04:09:40;;;;;;;12.30;10.80;;;3.60;99.90;;;;;;5015254;28;20180;-70
2023/02/16 04:15:13;;;;;;;12.90;10.73;;;3.60;99.90;;;;;;4987285;28;20756;-70
2023/02/16 04:17:39;;;;;;;12.03;10.27;;;3.50;99.90;;;;;;5015890;28;20396;-70
2023/02/16 04:20:06;;;;;;;11.23;9.50;;;3.50;99.90;;;;;;5015159;28;20908;-70
2023/02/16 04:22:31;;;;;;;13.00;10.23;;;3.60;99.90;;;;;;5013763;28;20411;-71
2023/02/16 04:24:57;;;;;;;16.10;12.87;;;3.60;99.90;;;;;;5015117;28;20506;-70
2023/02/16 04:27:23;;;;;;;13.20;10.80;;;3.60;99.90;;;;;;5014705;28;20164;-70
2023/02/16 04:29:48;;;;;;;12.77;10.80;;;3.60;99.90;;;;;;5015437;28;20180;-70
2023/02/16 04:32:14;;;;;;;15.80;11.30;;;3.40;99.90;;;;;;5015081;28;20196;-70
2023/02/16 04:34:39;;;;;;;14.33;11.33;;;3.30;99.90;;;;;;5015386;28;20190;-70
2023/02/16 04:37:05;;;;;;;15.63;11.67;;;3.20;99.90;;;;;;5013473;28;20655;-70
2023/02/16 04:39:31;;;;;;;14.80;10.90;;;3.20;99.90;;;;;;5014567;28;20222;-70
2023/02/16 04:41:57;;;;;;;14.80;11.37;;;3.20;99.90;;;;;;5014663;28;20701;-70
2023/02/16 04:44:22;;;;;;;12.70;9.40;;;3.10;99.90;;;;;;5014969;28;20406;-70
2023/02/16 04:46:48;;;;;;;12.53;10.67;;;3.10;99.90;;;;;;5004897;28;20157;-70
2023/02/16 04:49:14;;;;;;;12.23;10.03;;;3.10;99.90;;;;;;4995469;28;20177;-71
2023/02/16 04:51:39;;;;;;;13.97;10.23;;;3.20;99.90;;;;;;4995534;28;20195;-70
2023/02/16 04:54:05;;;;;;;12.40;10.20;;;3.20;99.90;;;;;;5008051;28;20172;-70
2023/02/16 04:56:31;;;;;;;14.23;11.00;;;3.30;99.90;;;;;;5014846;28;20174;-71
2023/02/16 04:58:56;;;;;;;12.30;11.00;;;3.40;99.90;;;;;;5013363;28;20513;-71
2023/02/16 05:01:24;;;;;;;13.10;10.83;;;3.40;99.90;;;;;;5015611;28;20188;-71
2023/02/16 05:03:50;;;;;;;11.50;10.33;;;3.40;99.90;;;;;;5014921;28;20200;-71
2023/02/16 05:06:15;;;;;;;17.00;10.90;;;3.40;99.90;;;;;;5015133;28;20406;-70
2023/02/16 05:08:41;;;;;;;13.03;9.60;;;3.30;99.90;;;;;;5020310;28;20228;-71
2023/02/16 05:16:35;;;;;;;12.03;10.53;;;3.30;99.90;;;;;;5017026;28;20750;-70
2023/02/16 05:19:01;;;;;;;16.30;11.63;;;3.10;99.90;;;;;;5013585;28;20438;-70
2023/02/16 05:21:29;;;;;;;11.93;10.23;;;3.00;99.90;;;;;;5014182;28;20536;-71
2023/02/16 05:23:55;;;;;;;12.10;10.43;;;3.10;99.90;;;;;;5014659;28;20176;-70
2023/02/16 05:26:20;;;;;;;14.40;10.40;;;3.00;99.90;;;;;;5013778;28;20402;-70
2023/02/16 05:28:46;;;;;;;14.83;10.47;;;2.80;99.90;;;;;;5014192;28;20168;-70
2023/02/16 05:31:11;;;;;;;10.33;8.90;;;2.90;99.90;;;;;;5013899;28;20187;-71
2023/02/16 05:33:37;;;;;;;11.77;10.33;;;3.10;99.90;;;;;;5013546;28;20172;-70
2023/02/16 05:36:03;;;;;;;15.23;11.37;;;3.10;99.90;;;;;;5014088;28;20198;-70
2023/02/16 05:38:28;;;;;;;16.73;12.13;;;3.00;99.90;;;;;;5014029;28;20176;-70
2023/02/16 05:40:54;;;;;;;14.33;11.27;;;3.00;99.90;;;;;;5013896;28;20203;-70
2023/02/16 05:43:19;;;;;;;11.20;9.90;;;3.00;99.90;;;;;;5012882;28;20175;-70
2023/02/16 05:45:45;;;;;;;13.20;10.50;;;3.00;99.90;;;;;;4995729;28;20175;-70
2023/02/16 05:48:10;;;;;;;16.07;10.50;;;3.00;99.90;;;;;;4993287;28;20169;-71
2023/02/16 05:50:36;;;;;;;12.60;10.43;;;3.10;99.90;;;;;;4998220;28;20192;-70
2023/02/16 05:53:01;;;;;;;14.43;11.27;;;3.10;99.90;;;;;;4993667;28;20330;-70
2023/02/16 05:55:27;;;;;;;13.07;10.30;;;3.10;99.90;;;;;;4991962;28;20180;-72
2023/02/16 05:57:53;;;;;;;12.43;10.00;;;2.90;99.90;;;;;;4984930;28;20191;-73
2023/02/16 06:00:18;;;;;;;15.00;10.47;;;2.80;99.90;;;;;;4984737;28;20196;-73
2023/02/16 06:02:44;;;;;;;14.80;11.47;;;2.80;99.90;;;;;;4984740;28;20655;-73
2023/02/16 06:05:09;;;;;;;15.00;11.47;;;2.80;99.90;;;;;;4984300;28;20176;-72
2023/02/16 06:07:35;;;;;;;13.53;10.80;;;2.70;99.90;;;;;;4984650;28;20264;-72
2023/02/16 06:10:01;;;;;;;13.47;11.20;;;2.80;99.90;;;;;;4984178;28;20180;-73
2023/02/16 06:12:26;;;;;;;13.77;11.87;;;2.90;99.90;;;;;;4984193;28;20200;-74
2023/02/16 06:14:52;;;;;;;13.87;11.10;;;2.80;99.90;;;;;;4984543;28;20184;-72
2023/02/16 06:17:17;;;;;;;14.27;10.70;;;2.90;99.90;;;;;;4984216;28;20211;-72
2023/02/16 06:19:43;;;;;;;15.00;11.77;;;3.00;99.90;;;;;;4984188;28;20250;-69
2023/02/16 06:22:08;;;;;;;17.83;12.80;;;2.90;99.90;;;;;;4985010;28;20672;-70
2023/02/16 06:24:34;;;;;;;14.83;11.10;;;3.00;99.90;;;;;;4983720;28;20227;-72
2023/02/16 06:26:59;;;;;;;15.67;11.83;;;3.00;99.90;;;;;;4983918;28;20192;-69
2023/02/16 06:29:25;;;;;;;16.40;11.87;;;3.00;99.90;;;;;;4984148;28;20687;-71
2023/02/16 06:31:50;;;;;;;19.83;13.40;;;2.90;99.90;;;;;;4984267;28;20200;-69
2023/02/16 06:34:16;;;;;;;17.27;11.80;;;2.90;99.90;;;;;;4984127;28;20216;-71
2023/02/16 06:36:42;;;;;;;17.20;12.60;;;2.80;99.90;;;;;;4983675;28;20187;-69
2023/02/16 06:39:07;;;;;;;16.50;12.60;;;2.80;99.90;;;;;;4966330;28;20270;-69
2023/02/16 06:41:36;;;;;;;15.40;12.63;;;2.90;99.90;;;;;;5014472;22;20658;-68
2023/02/16 06:44:14;;;;;;;13.67;10.17;;;2.90;99.90;;;;;;5021958;28;20724;-70
2023/02/16 06:46:40;;;;;;;14.13;11.57;;;3.00;99.90;;;;;;5022036;28;20428;-71
2023/02/16 06:49:06;;;;;;;18.10;12.17;;;3.00;99.90;;;;;;5023530;28;20896;-72
2023/02/16 06:51:32;;;;;;;17.10;12.83;;;3.00;99.90;;;;;;5023077;28;20441;-71
2023/02/16 06:53:58;;;;;;;14.20;10.77;;;3.00;99.90;;;;;;5022451;28;20410;-73
2023/02/16 06:56:24;;;;;;;14.73;13.00;;;3.00;99.90;;;;;;5022910;28;20202;-72
2023/02/16 06:58:50;;;;;;;17.40;12.70;;;3.00;99.90;;;;;;5024044;28;20520;-72
2023/02/16 07:01:21;;;;;;;12.47;11.10;;;2.90;99.90;;;;;;5025275;28;20473;-73
2023/02/16 07:03:48;;;;;;;14.53;11.10;;;2.90;99.90;;;;;;5025544;28;20784;-72
2023/02/16 07:06:14;;;;;;;15.20;12.93;;;2.90;99.90;;;;;;5025467;28;20406;-72
2023/02/16 07:08:40;;;;;;;17.53;13.63;;;3.00;99.90;;;;;;5027258;28;20436;-74
2023/02/16 07:11:05;;;;;;;14.93;12.57;;;3.10;99.90;;;;;;5026316;28;20707;-72
2023/02/16 07:13:35;;;;;;;12.97;10.73;;;3.10;99.90;;;;;;5026315;28;20361;-74
2023/02/16 07:16:01;;;;;;;13.80;12.00;;;3.10;99.90;;;;;;5026808;28;20183;-72
2023/02/16 07:18:27;;;;;;;16.50;12.27;;;3.10;99.90;;;;;;5026930;28;20417;-73
2023/02/16 07:20:52;;;;;;;16.00;12.67;;;3.10;99.90;;;;;;5025325;28;20840;-72
2023/02/16 07:23:18;;;;;;;15.33;11.93;;;3.20;99.90;;;;;;5026399;28;20191;-75
2023/02/16 07:25:43;;;;;;;15.73;12.87;;;3.20;99.90;;;;;;5024941;28;20688;-74
2023/02/16 07:28:09;;;;;;;15.17;12.17;;;3.30;99.90;;;;;;5025156;28;20194;-72
2023/02/16 07:30:35;;;;;;;13.70;11.17;;;3.30;99.90;;;;;;5026214;28;20534;-69
2023/02/16 07:33:00;;;;;;;13.07;11.70;;;3.40;99.90;;;;;;5026592;28;20306;-73
2023/02/16 07:35:26;;;;;;;14.20;12.23;;;3.40;99.90;;;;;;5026062;28;20501;-73
2023/02/16 07:37:52;;;;;;;19.67;14.30;;;3.40;99.90;;;;;;5026271;28;20191;-71
2023/02/16 07:40:17;;;;;;;22.50;16.80;;;3.50;99.90;;;;;;5024344;28;20206;-70
2023/02/16 07:42:43;;;;;;;21.73;16.00;;;3.50;99.90;;;;;;5024144;28;20735;-70
2023/02/16 07:45:09;;;;;;;18.27;14.10;;;3.50;99.90;;;;;;5026102;28;20175;-70
2023/02/16 07:47:34;;;;;;;20.80;13.23;;;3.60;99.90;;;;;;5026233;28;20254;-74
2023/02/16 07:50:00;;;;;;;18.70;13.97;;;3.70;99.90;;;;;;5024095;28;20182;-70
2023/02/16 07:52:29;;;;;;;18.33;14.03;;;3.80;99.90;;;;;;5026150;28;20206;-72
2023/02/16 07:54:56;;;;;;;15.50;13.73;;;3.90;99.90;;;;;;5024832;28;20187;-73
2023/02/16 07:57:22;;;;;;;17.87;14.13;;;4.00;99.90;;;;;;5025143;28;20414;-72
2023/02/16 07:59:51;;;;;;;18.50;14.00;;;4.10;99.90;;;;;;5025995;28;20997;-74
2023/02/16 08:02:18;;;;;;;17.10;14.53;;;4.20;99.90;;;;;;5025924;28;21225;-74
2023/02/16 08:04:44;;;;;;;25.03;16.53;;;4.30;99.90;;;;;;5026126;28;21349;-73
2023/02/16 08:07:12;;;;;;;24.70;14.30;;;4.40;99.90;;;;;;5025670;28;20402;-71
2023/02/16 08:09:38;;;;;;;17.97;13.63;;;4.60;99.90;;;;;;5026240;28;20425;-73
2023/02/16 08:12:03;;;;;;;19.33;15.00;;;4.70;99.90;;;;;;5024755;28;20441;-74
2023/02/16 08:14:29;;;;;;;22.00;14.70;;;4.90;99.90;;;;;;5025703;28;20417;-72
2023/02/16 08:16:54;;;;;;;19.80;14.53;;;5.00;99.90;;;;;;5025777;28;20183;-72
2023/02/16 08:19:20;;;;;;;19.00;14.23;;;5.00;99.90;;;;;;5025607;28;20199;-71
2023/02/16 08:21:48;;;;;;;18.70;14.90;;;5.20;99.90;;;;;;5026389;28;20199;-72
2023/02/16 08:24:13;;;;;;;22.80;16.40;;;5.30;99.90;;;;;;5025676;28;20652;-73
2023/02/16 08:26:41;;;;;;;27.47;16.40;;;5.40;99.90;;;;;;5025778;28;20453;-71
2023/02/16 08:29:12;;;;;;;22.40;15.43;;;5.50;99.90;;;;;;5024842;28;20198;-74
2023/02/16 08:31:38;;;;;;;23.20;15.63;;;5.60;99.90;;;;;;5025232;28;20442;-73
2023/02/16 08:34:04;;;;;;;21.63;15.50;;;5.70;99.90;;;;;;5025077;28;20932;-69
2023/02/16 08:36:35;;;;;;;17.87;13.93;;;5.80;99.90;;;;;;5025871;28;20180;-71
2023/02/16 08:39:06;;;;;;;19.13;14.40;;;5.90;99.90;;;;;;5025098;28;20424;-71
2023/02/16 08:41:34;;;;;;;18.30;13.10;;;6.00;99.90;;;;;;5025216;28;20883;-70
2023/02/16 08:44:01;;;;;;;19.50;15.80;;;6.00;99.90;;;;;;5025682;28;20408;-74
2023/02/16 08:46:28;;;;;;;17.50;14.23;;;6.10;99.90;;;;;;5024358;28;20433;-74
2023/02/16 08:48:58;;;;;;;22.27;15.43;;;6.20;99.90;;;;;;5025375;28;20440;-73
2023/02/16 08:51:26;;;;;;;19.70;15.63;;;6.20;99.90;;;;;;5023734;28;21371;-70
2023/02/16 08:53:52;;;;;;;20.43;16.77;;;6.30;99.90;;;;;;5024938;28;20427;-74
2023/02/16 08:56:18;;;;;;;21.00;17.13;;;6.50;99.90;;;;;;5024768;28;20423;-72
2023/02/16 08:58:47;;;;;;;23.30;17.00;;;6.60;99.90;;;;;;5024781;28;20182;-72
2023/02/16 09:01:16;;;;;;;28.13;16.60;;;6.70;99.90;;;;;;5023352;28;20476;-69
2023/02/16 09:03:44;;;;;;;18.83;16.37;;;6.70;99.90;;;;;;5025069;28;20470;-72
2023/02/16 09:06:12;;;;;;;21.90;16.23;;;6.70;99.90;;;;;;5023797;28;20415;-72
2023/02/16 09:08:38;;;;;;;20.50;16.83;;;6.80;99.90;;;;;;5023191;28;21287;-74
2023/02/16 09:11:11;;;;;;;17.93;16.03;;;6.90;99.90;;;;;;5024742;28;20436;-72
2023/02/16 09:13:39;;;;;;;19.10;17.07;;;7.10;99.90;;;;;;5025036;28;20757;-72
2023/02/16 09:16:09;;;;;;;22.90;17.00;;;7.10;99.90;;;;;;5024706;28;20444;-73
2023/02/16 09:18:35;;;;;;;20.27;17.47;;;7.20;99.90;;;;;;5025185;28;21131;-71
2023/02/16 09:21:06;;;;;;;20.80;17.00;;;7.20;99.90;;;;;;5025053;28;20461;-69
2023/02/16 09:23:35;;;;;;;18.57;16.50;;;7.30;99.90;;;;;;5026508;28;20425;-71
2023/02/16 09:26:01;;;;;;;21.83;16.53;;;7.50;99.90;;;;;;5028301;28;20424;-70
2023/02/16 09:28:28;;;;;;;22.13;18.60;;;7.40;99.90;;;;;;5024539;28;20747;-69
2023/02/16 09:30:54;;;;;;;20.43;17.37;;;7.40;99.90;;;;;;5024601;28;20341;-69
2023/02/16 09:33:20;;;;;;;22.53;16.77;;;7.50;99.90;;;;;;5024425;28;20852;-72
2023/02/16 09:35:46;;;;;;;22.10;18.70;;;7.70;99.90;;;;;;5027326;28;20182;-71
2023/02/16 09:38:15;;;;;;;23.47;18.20;;;7.80;99.90;;;;;;5025962;28;20951;-72
2023/02/16 09:40:41;;;;;;;19.93;14.70;;;8.00;99.90;;;;;;5022513;28;20694;-73
2023/02/16 09:43:22;;;;;;;15.13;13.10;;;8.30;99.90;;;;;;5023924;28;20435;-73
2023/02/16 09:45:50;;;;;;;11.20;10.00;;;8.50;99.90;;;;;;5024432;28;20459;-72
2023/02/16 09:48:32;;;;;;;19.17;14.90;;;8.80;99.90;;;;;;5024220;28;20415;-73
2023/02/16 09:51:00;;;;;;;16.00;11.83;;;9.00;99.90;;;;;;5023763;28;20458;-71
2023/02/16 09:53:38;;;;;;;12.93;10.23;;;9.20;99.90;;;;;;5023581;28;20453;-71
2023/02/16 09:56:28;;;;;;;12.50;9.83;;;9.30;99.90;;;;;;5030694;28;20934;-72
2023/02/16 09:59:09;;;;;;;11.43;9.43;;;9.60;99.90;;;;;;5031877;28;20407;-74
2023/02/16 10:01:46;;;;;;;11.73;9.90;;;9.80;99.90;;;;;;5029031;28;20451;-70
2023/02/16 10:04:55;;;;;;;11.43;10.17;;;10.00;99.90;;;;;;5029923;28;20916;-71
2023/02/16 10:07:55;;;;;;;15.07;10.47;;;10.20;99.90;;;;;;5039046;28;20451;-70
2023/02/16 10:10:24;;;;;;;19.30;9.83;;;10.40;99.90;;;;;;5023272;28;20482;-70
2023/02/16 10:13:14;;;;;;;13.77;10.27;;;10.40;99.90;;;;;;5023017;28;20433;-70
2023/02/16 10:15:43;;;;;;;11.80;9.17;;;10.50;99.90;;;;;;5023662;28;20817;-70
2023/02/16 10:18:28;;;;;;;9.80;8.00;;;10.70;99.90;;;;;;5023380;28;20409;-71
2023/02/16 10:20:57;;;;;;;12.63;8.60;;;10.80;99.90;;;;;;5023268;28;20472;-69
2023/02/16 10:24:00;;;;;;;13.90;9.40;;;10.90;99.90;;;;;;5023103;28;20417;-70
2023/02/16 10:26:35;;;;;;;11.10;9.10;;;10.90;99.90;;;;;;4989275;28;20961;-70
2023/02/16 10:29:15;;;;;;;9.93;8.87;;;11.00;99.90;;;;;;5023447;28;20411;-71
2023/02/16 10:32:21;;;;;;;11.10;8.70;;;11.30;99.60;;;;;;5022375;28;20855;-70
2023/02/16 10:35:09;;;;;;;9.00;8.10;;;11.40;99.70;;;;;;4964104;28;20854;-72
2023/02/16 10:37:59;;;;;;;12.90;8.57;;;11.50;99.30;;;;;;4966242;28;20795;-70
2023/02/16 10:40:37;;;;;;;9.60;7.67;;;11.60;98.60;;;;;;5014406;28;21088;-71
2023/02/16 10:43:37;;;;;;;10.40;7.87;;;11.80;97.70;;;;;;5027336;28;20458;-71
2023/02/16 10:46:04;;;;;;;13.30;7.93;;;11.90;98.30;;;;;;5027578;28;20405;-67
2023/02/16 10:48:31;;;;;;;8.00;7.20;;;12.10;97.80;;;;;;5027637;28;20497;-73
2023/02/16 10:51:06;;;;;;;10.33;8.63;;;12.30;97.60;;;;;;5027002;28;20436;-71
2023/02/16 10:54:00;;;;;;;12.87;7.90;;;12.20;97.10;;;;;;5026950;28;20494;-73
2023/02/16 10:56:52;;;;;;;21.20;9.73;;;12.20;96.60;;;;;;5025341;28;20434;-71
2023/02/16 10:59:21;;;;;;;12.30;7.80;;;12.50;97.00;;;;;;5018974;28;20469;-69
2023/02/16 11:01:58;;;;;;;11.13;7.60;;;12.70;96.40;;;;;;5027068;28;20915;-69
2023/02/16 11:04:37;;;;;;;9.27;7.20;;;12.70;96.60;;;;;;5027146;28;20470;-67
2023/02/16 11:07:11;;;;;;;19.13;8.70;;;12.80;95.80;;;;;;5026750;28;20435;-69
2023/02/16 11:09:38;;;;;;;11.57;7.30;;;12.90;96.00;;;;;;5027329;28;20425;-72
2023/02/16 11:12:39;;;;;;;10.83;7.20;;;13.00;95.80;;;;;;5026679;28;20428;-70
2023/02/16 11:15:12;;;;;;;10.30;6.57;;;13.10;95.40;;;;;;5016072;28;20429;-69
2023/02/16 11:17:51;;;;;;;10.13;7.90;;;13.40;94.80;;;;;;5026850;28;20496;-68
2023/02/16 11:20:49;;;;;;;12.07;6.80;;;15.20;93.50;;;;;;5026922;28;20530;-68
2023/02/16 11:23:27;;;;;;;8.10;6.50;;;17.70;90.10;;;;;;5025303;28;20499;-72
2023/02/16 11:26:02;;;;;;;10.00;7.00;;;19.60;77.20;;;;;;5026829;28;20409;-73
2023/02/16 11:28:33;;;;;;;9.80;6.07;;;21.40;73.30;;;;;;5026340;28;20401;-69
2023/02/16 11:31:02;;;;;;;9.57;6.63;;;22.60;67.00;;;;;;5026509;28;20434;-71
2023/02/16 11:33:28;;;;;;;8.07;6.00;;;23.30;62.10;;;;;;5026449;28;20410;-72
2023/02/16 11:35:55;;;;;;;6.43;5.23;;;23.20;56.40;;;;;;5026580;28;20414;-71
2023/02/16 11:38:29;;;;;;;9.90;6.10;;;22.10;56.50;;;;;;5026419;28;20902;-71
2023/02/16 11:40:55;;;;;;;6.73;4.87;;;21.90;55.60;;;;;;5026270;28;20465;-72
2023/02/16 11:43:24;;;;;;;11.60;5.60;;;22.60;55.10;;;;;;5025890;28;20410;-71
2023/02/16 11:46:08;;;;;;;8.83;7.27;;;23.60;52.80;;;;;;5025322;28;20406;-71
2023/02/16 11:48:35;;;;;;;11.60;7.53;;;22.80;54.00;;;;;;5025823;28;20432;-70
2023/02/16 11:51:08;;;;;;;17.43;10.73;;;23.20;54.20;;;;;;5025975;28;20967;-70
2023/02/16 11:53:41;;;;;;;24.53;11.47;;;23.20;54.70;;;;;;5026430;28;20398;-71
2023/02/16 11:56:21;;;;;;;15.90;12.13;;;23.70;54.40;;;;;;5025825;28;20500;-69
2023/02/16 11:59:06;;;;;;;14.17;11.80;;;20.20;58.40;;;;;;5025674;28;20781;-70
2023/02/16 12:01:56;;;;;;;17.10;11.57;;;20.20;60.00;;;;;;5026001;28;20465;-70
2023/02/16 12:04:52;;;;;;;16.63;11.30;;;20.80;59.50;;;;;;5025840;28;20421;-70
2023/02/16 12:07:36;;;;;;;14.80;11.20;;;22.00;58.20;;;;;;5025190;28;20406;-72
2023/02/16 12:10:09;;;;;;;11.47;9.70;;;23.50;55.40;;;;;;5025729;28;20556;-70
2023/02/16 12:12:51;;;;;;;15.07;10.23;;;23.70;54.10;;;;;;5026182;28;20434;-70
2023/02/16 12:15:33;;;;;;;14.90;10.40;;;24.30;52.10;;;;;;5025329;28;20495;-70
2023/02/16 12:18:13;;;;;;;14.73;10.20;;;23.20;53.90;;;;;;5024269;28;21111;-69
2023/02/16 12:20:40;;;;;;;17.27;10.80;;;24.40;52.80;;;;;;5026006;28;20483;-69
2023/02/16 12:23:37;;;;;;;14.83;9.80;;;23.70;51.70;;;;;;5027486;28;20422;-73
2023/02/16 12:26:35;;;;;;;13.63;9.67;;;24.20;51.30;;;;;;5028926;28;20459;-72
2023/02/16 12:29:22;;;;;;;17.40;9.77;;;23.80;51.80;;;;;;5025182;28;20461;-68
2023/02/16 12:32:04;;;;;;;11.53;9.07;;;24.20;51.50;;;;;;5025769;28;20429;-70
2023/02/16 12:35:01;;;;;;;13.50;9.73;;;24.80;50.00;;;;;;5025322;28;20513;-71
2023/02/16 12:37:47;;;;;;;10.90;8.93;;;24.20;50.00;;;;;;5024581;28;20797;-70
2023/02/16 12:40:23;;;;;;;10.10;8.53;;;23.90;51.10;;;;;;5026420;28;20870;-71
2023/02/16 12:42:54;;;;;;;14.73;8.13;;;24.90;50.00;;;;;;5032724;22;20495;-72
2023/02/16 12:45:26;;;;;;;11.77;9.03;;;25.90;48.50;;;;;;4986050;28;20396;-71
2023/02/16 12:47:56;;;;;;;14.03;8.50;;;24.30;47.90;;;;;;4984775;28;20794;-72
2023/02/16 12:50:31;;;;;;;12.90;8.00;;;24.80;50.80;;;;;;4985883;28;20487;-71
2023/02/16 12:53:10;;;;;;;9.90;8.50;;;25.00;49.00;;;;;;4985705;28;20779;-71
2023/02/16 12:55:43;;;;;;;19.80;9.50;;;22.50;50.50;;;;;;4985918;28;20495;-71
2023/02/16 12:58:44;;;;;;;12.40;9.20;;;21.70;52.40;;;;;;4985368;28;20435;-70
2023/02/16 13:01:14;;;;;;;15.40;9.03;;;20.40;54.00;;;;;;4985866;28;20958;-72
2023/02/16 13:04:09;;;;;;;13.93;8.73;;;21.30;53.40;;;;;;4984603;28;20446;-71
2023/02/16 13:06:40;;;;;;;13.83;8.90;;;23.40;51.40;;;;;;4985258;28;20415;-70
2023/02/16 13:09:15;;;;;;;10.20;8.20;;;24.20;50.20;;;;;;4985376;28;20423;-71
2023/02/16 13:11:54;;;;;;;9.83;8.83;;;25.10;48.70;;;;;;4983891;28;20509;-71
2023/02/16 13:14:26;;;;;;;10.90;8.47;;;26.30;47.30;;;;;;4985944;28;20420;-71
2023/02/16 13:16:57;;;;;;;8.23;7.43;;;25.20;47.50;;;;;;4985683;28;20407;-72
2023/02/16 13:19:23;;;;;;;12.47;8.40;;;23.90;49.40;;;;;;4985964;28;20428;-71
2023/02/16 13:21:52;;;;;;;13.17;8.67;;;24.60;48.90;;;;;;5001200;28;20451;-70
2023/02/16 13:24:49;;;;;;;11.20;8.73;;;25.50;47.90;;;;;;4985916;28;20416;-71
2023/02/16 13:27:37;;;;;;;15.27;8.73;;;24.30;49.10;;;;;;4984323;28;20506;-71
2023/02/16 13:30:21;;;;;;;13.50;8.30;;;24.00;49.50;;;;;;4985273;28;20420;-70
2023/02/16 13:33:23;;;;;;;9.37;7.50;;;22.10;51.30;;;;;;4985475;28;20490;-70
2023/02/16 13:35:59;;;;;;;13.90;9.10;;;21.30;53.40;;;;;;4963634;28;20903;-71
2023/02/16 13:39:02;;;;;;;13.40;9.23;;;22.60;52.30;;;;;;4983617;28;20935;-70
2023/02/16 13:41:49;;;;;;;10.90;8.70;;;22.40;51.50;;;;;;4984506;28;20467;-71
2023/02/16 13:44:19;;;;;;;11.93;8.20;;;22.50;52.10;;;;;;4985002;28;21023;-70
2023/02/16 13:46:51;;;;;;;11.57;8.63;;;22.60;52.00;;;;;;4985414;28;20726;-72
2023/02/16 13:49:41;;;;;;;11.63;8.93;;;20.10;54.50;;;;;;4999762;28;20416;-71
2023/02/16 13:52:27;;;;;;;14.97;9.57;;;19.60;56.30;;;;;;4985187;28;20526;-71